Terminal Aerodrome Forecast
Issued by NWS

Home | Current Version | Previous Version | Text Only | Print | Product List | Glossary On
Versions: 1 2 3 4 5 6 7 8 9 10 11 12 13 14
000
FTUS44 KLZK 301100
TAFHRO
TAF
KHRO 301120Z 3012/3112 VRB05KT P6SM SKC
     FM301600 17007KT P6SM FEW040 SCT120
     FM310600 20005KT P6SM VCSH BKN035 PROB30 3106/3112 -SHRA
      BKN020=

USA.gov is the U.S. government's official web portal to all federal, state and local government web resources and services.